• Join FlightAware (Why Join?)
  • Login
  • US Flag 
03:19AM EDT


 

Airport Tracker/Info


-or-


 

Live Flight TrackerFlight Track Log ✈ IBE488 ✈ 27-Apr-2013 ✈ LEMD / MAD - LEAS / OVD

Flight Track Log - Related Links

Times and Time Zones

All times are in EDT time to prevent confusion due to time zone crossing. See the IBE488 flight status page for this flight to view local times or setup timezone preferences in your user account.

Time Position Orientation Groundspeed Altitude Reporting Facility
EDT Latitude Longitude Course Direction KTS MPH feet Rate Location/Type
06:25AM 42.5935 -5.2240 330° Northwest  Level Estimated
06:26AM 42.6680 -5.2852 329° Northwest  Level Estimated
06:27AM 42.7425 -5.3466 329° Northwest  Level Estimated
06:28AM 42.8170 -5.4081 329° Northwest  Level Estimated
06:29AM 42.8915 -5.4698 329° Northwest  Level Estimated
06:30AM 42.9659 -5.5316 329° Northwest  Level Estimated
06:31AM 43.0403 -5.5936 329° Northwest  Level Estimated
06:32AM 43.1146 -5.6557 329° Northwest  Level Estimated
06:33AM 43.1889 -5.7180 329° Northwest  Level Estimated
06:34AM 43.2632 -5.7804 329° Northwest  Level Estimated
06:35AM 43.3374 -5.8429 329° Northwest  Level Estimated
06:36AM 43.4117 -5.9057 328° Northwest  Level Estimated
06:37AM 43.4858 -5.9685 328° Northwest  Level Estimated
06:38AM 43.5600 -6.0316 328° Northwest  Level Estimated
06:39AM 43.5636 -6.0346 328° Northwest  Level Estimated
06:40AM 43.5636 -6.0346 206° Southwest  Level Estimated
06:41AM 43.5636 -6.0346 206° Southwest  Level Estimated
06:42AM 43.5636 -6.0346 206° Southwest  Level Estimated
06:43AM 43.5636 -6.0346 206° Southwest  Level Estimated
06:44AM 43.5636 -6.0346 206° Southwest  Level Estimated
06:45AM 43.5636 -6.0346 206° Southwest  Level Estimated
06:46AM 43.5636 -6.0346 206° Southwest  Level Estimated
06:47AM 43.5636 -6.0346 206° Southwest  Level Estimated
06:48AM 43.5636 -6.0346 206° Southwest  Level Estimated
06:49AM 43.5636 -6.0346 206° Southwest  Level Estimated
06:50AM 43.5636 -6.0346 206° Southwest  Level Estimated
06:51AM 43.5636 -6.0346 206° Southwest  Level Estimated
06:52AM 43.5636 -6.0346 206° Southwest  Level Estimated
06:53AM 43.5636 -6.0346 206° Southwest  Level Estimated
06:54AM 43.5636 -6.0346 206° Southwest  Level Estimated